Date,TemperatureHighF,TemperatureAvgF,TemperatureLowF,DewpointHighF,DewpointAvgF,DewpointLowF,HumidityHigh,HumidityAvg,HumidityLow,PressureMaxIn,PressureMinIn,WindSpeedMaxMPH,WindSpeedAvgMPH,GustSpeedMaxMPH,PrecipitationSumIn
2013-1-1,32,22,15,-100,-100,-100,0,0,100,0.00,40.00,0,-999,0,0.00
2013-1-2,38,24,13,-100,-100,-100,0,0,100,0.00,40.00,0,-999,0,0.00
2013-1-3,35,27,16,-100,-100,-100,0,0,100,0.00,40.00,0,-999,0,0.00
2013-1-4,36,23,14,-100,-100,-100,0,0,100,0.00,40.00,0,-999,0,0.00
2013-1-5,40,32,23,-100,-100,-100,0,0,100,0.00,40.00,0,-999,0,0.00
2013-1-6,42,29,18,-100,-100,-100,0,0,100,0.00,40.00,0,-999,0,0.00
2013-1-7,46,37,32,-100,-100,-100,0,0,100,0.00,40.00,0,-999,0,0.00
2013-1-8,44,36,32,-100,-100,-100,0,0,100,0.00,40.00,0,-999,0,0.00
2013-1-9,57,39,28,-100,-100,-100,0,0,100,0.00,40.00,0,-999,0,0.00
2013-1-10,42,39,36,-100,-100,-100,0,0,100,0.00,40.00,0,-999,0,0.00
2013-1-11,52,46,35,-100,-100,-100,0,0,100,0.00,40.00,0,-999,0,0.00
2013-1-12,33,26,19,-100,-100,-100,0,0,100,0.00,40.00,0,-999,0,0.00
2013-1-13,28,20,15,-100,-100,-100,0,0,100,0.00,40.00,0,-999,0,0.00
2013-1-14,36,24,14,-100,-100,-100,0,0,100,0.00,40.00,0,-999,0,0.00
2013-1-15,40,28,19,-100,-100,-100,0,0,100,0.00,40.00,0,-999,0,0.00
2013-1-16,54,36,24,-100,-100,-100,0,0,100,0.00,40.00,0,-999,0,0.00
2013-1-17,52,37,28,-100,-100,-100,0,0,100,0.00,40.00,0,-999,0,0.00
2013-1-18,56,42,32,-100,-100,-100,0,0,100,0.00,40.00,0,-999,0,0.00
2013-1-19,58,40,31,-100,-100,-100,0,0,100,0.00,40.00,0,-999,0,0.00
2013-1-20,33,27,21,-100,-100,-100,0,0,100,0.00,40.00,0,-999,0,0.00
2013-1-21,21,20,19,-100,-100,-100,0,0,100,0.00,40.00,0,-999,0,0.00
2013-1-22,37,25,17,-100,-100,-100,0,0,100,0.00,40.00,0,-999,0,0.00
2013-1-23,41,29,21,-100,-100,-100,0,0,100,0.00,40.00,0,-999,0,0.00
2013-1-24,30,22,11,-100,-100,-100,0,0,100,0.00,40.00,0,-999,0,0.00
2013-1-25,51,36,24,-100,-100,-100,0,0,100,0.00,40.00,0,-999,0,0.00
2013-1-26,59,42,30,-100,-100,-100,0,0,100,0.00,40.00,0,-999,0,0.00
2013-1-27,55,46,41,-100,-100,-100,0,0,100,0.00,40.00,0,-999,0,0.00
2013-1-28,66,48,36,-100,-100,-100,0,0,100,0.00,40.00,0,-999,0,0.00
2013-1-29,58,39,33,-100,-100,-100,0,0,100,0.00,40.00,0,-999,0,0.00
2013-1-30,33,29,22,-100,-100,-100,0,0,100,0.00,40.00,0,-999,0,0.00
2013-1-31,24,19,12,-100,-100,-100,0,0,100,0.00,40.00,0,-999,0,0.00
2013-2-1,36,25,10,-100,-100,-100,0,0,100,0.00,40.00,0,-999,0,0.00
2013-2-2,50,38,29,-100,-100,-100,0,0,100,0.00,40.00,0,-999,0,0.00
2013-2-3,50,44,40,-100,-100,-100,0,0,100,0.00,40.00,0,-999,0,0.00
2013-2-4,50,34,30,-100,-100,-100,0,0,100,0.00,40.00,0,-999,0,0.00
2013-2-5,54,40,29,-100,-100,-100,0,0,100,0.00,40.00,0,-999,0,0.00
2013-2-6,62,49,37,-100,-100,-100,0,0,100,0.00,40.00,0,-999,0,0.00
2013-2-7,51,43,32,-100,-100,-100,0,0,100,0.00,40.00,0,-999,0,0.00
2013-2-8,46,36,31,-100,-100,-100,0,0,100,0.00,40.00,0,-999,0,0.00
2013-2-9,55,42,32,-100,-100,-100,0,0,100,0.00,40.00,0,-999,0,0.00
2013-2-10,46,40,36,-100,-100,-100,0,0,100,0.00,40.00,0,-999,0,0.00
2013-2-11,45,36,30,-100,-100,-100,0,0,100,0.00,40.00,0,-999,0,0.00
2013-2-12,52,39,26,-100,-100,-100,0,0,100,0.00,40.00,0,-999,0,0.00
2013-2-13,54,39,29,-100,-100,-100,0,0,100,0.00,40.00,0,-999,0,0.00
2013-2-14,49,41,34,-100,-100,-100,0,0,100,0.00,40.00,0,-999,0,0.00
2013-2-15,40,30,23,-100,-100,-100,0,0,100,0.00,40.00,0,-999,0,0.00
2013-2-16,46,34,21,-100,-100,-100,0,0,100,0.00,40.00,0,-999,0,0.00
2013-2-17,63,47,29,-100,-100,-100,0,0,100,0.00,40.00,0,-999,0,0.00
2013-2-18,47,39,29,-100,-100,-100,0,0,100,0.00,40.00,0,-999,0,0.00
2013-2-19,36,29,23,-100,-100,-100,0,0,100,0.00,40.00,0,-999,0,0.00
2013-2-20,29,23,16,-100,-100,-100,0,0,100,0.00,40.00,0,-999,0,0.00
2013-2-21,27,26,21,-100,-100,-100,0,0,100,0.00,40.00,0,-999,0,0.00
2013-2-22,36,24,19,-100,-100,-100,0,0,100,0.00,40.00,0,-999,0,0.00
2013-2-23,47,28,14,-100,-100,-100,0,0,100,0.00,40.00,0,-999,0,0.00
2013-2-24,47,36,25,-100,-100,-100,0,0,100,0.00,40.00,0,-999,0,0.00
2013-2-25,39,35,32,-100,-100,-100,0,0,100,0.00,40.00,0,-999,0,0.00
2013-2-26,37,32,29,-100,-100,-100,0,0,100,0.00,40.00,0,-999,0,0.00
2013-2-27,43,35,29,-100,-100,-100,0,0,100,0.00,40.00,0,-999,0,0.00
2013-2-28,38,34,32,-100,-100,-100,0,0,100,0.00,40.00,0,-999,0,0.00
2013-3-1,36,31,25,-100,-100,-100,0,0,100,0.00,40.00,0,-999,0,0.00
2013-3-2,49,32,21,-100,-100,-100,0,0,100,0.00,40.00,0,-999,0,0.00
2013-3-3,54,42,32,-100,-100,-100,0,0,100,0.00,40.00,0,-999,0,0.00
2013-3-4,45,40,36,-100,-100,-100,0,0,100,0.00,40.00,0,-999,0,0.00
2013-3-5,41,33,28,-100,-100,-100,0,0,100,0.00,40.00,0,-999,0,0.00
2013-3-6,50,34,21,-100,-100,-100,0,0,100,0.00,40.00,0,-999,0,0.00
2013-3-7,61,42,27,-100,-100,-100,0,0,100,0.00,40.00,0,-999,0,0.00
2013-3-8,63,48,36,-100,-100,-100,0,0,100,0.00,40.00,0,-999,0,0.00
2013-3-9,59,52,40,-100,-100,-100,0,0,100,0.00,40.00,0,-999,0,0.00
2013-3-10,40,31,25,-100,-100,-100,0,0,100,0.00,40.00,0,-999,0,0.00
2013-3-11,42,31,21,-100,-100,-100,0,0,100,0.00,40.00,0,-999,0,0.00
2013-3-12,45,38,32,-100,-100,-100,0,0,100,0.00,40.00,0,-999,0,0.00
2013-3-13,54,38,24,-100,-100,-100,0,0,100,0.00,40.00,0,-999,0,0.00
2013-3-14,69,50,38,-100,-100,-100,0,0,100,0.00,40.00,0,-999,0,0.00
2013-3-15,76,57,42,-100,-100,-100,0,0,100,0.00,40.00,0,-999,0,0.00
2013-3-16,47,39,35,-100,-100,-100,0,0,100,0.00,40.00,0,-999,0,0.00
2013-3-17,49,38,30,-100,-100,-100,0,0,100,0.00,40.00,0,-999,0,0.00
2013-3-18,52,42,36,-100,-100,-100,0,0,100,0.00,40.00,0,-999,0,0.00
2013-3-19,46,41,36,-100,-100,-100,0,0,100,0.00,40.00,0,-999,0,0.00
2013-3-20,47,35,24,-100,-100,-100,0,0,100,0.00,40.00,0,-999,0,0.00
2013-3-21,43,35,30,-100,-100,-100,0,0,100,0.00,40.00,0,-999,0,0.00
2013-3-22,40,34,29,-100,-100,-100,0,0,100,0.00,40.00,0,-999,0,0.00
2013-3-23,38,35,31,-100,-100,-100,0,0,100,0.00,40.00,0,-999,0,0.00
2013-3-24,37,32,28,-100,-100,-100,0,0,100,0.00,40.00,0,-999,0,0.00
2013-3-25,37,32,27,-100,-100,-100,0,0,100,0.00,40.00,0,-999,0,0.00
2013-3-26,48,32,24,-100,-100,-100,0,0,100,0.00,40.00,0,-999,0,0.00
2013-3-27,60,45,34,-100,-100,-100,0,0,100,0.00,40.00,0,-999,0,0.00
2013-3-28,68,43,33,-100,-100,-100,0,0,100,0.00,40.00,0,-999,0,0.00
2013-3-29,74,56,42,-100,-100,-100,0,0,100,0.00,40.00,0,-999,0,0.00
2013-3-30,68,57,50,-100,-100,-100,0,0,100,0.00,40.00,0,-999,0,0.00
2013-3-31,63,54,43,-100,-100,-100,0,0,100,0.00,40.00,0,-999,0,0.00
2013-4-1,47,40,31,-100,-100,-100,0,0,100,0.00,40.00,0,-999,0,0.00
2013-4-2,58,42,29,-100,-100,-100,0,0,100,0.00,40.00,0,-999,0,0.00
2013-4-3,60,46,32,-100,-100,-100,0,0,100,0.00,40.00,0,-999,0,0.00
2013-4-4,66,48,33,-100,-100,-100,0,0,100,0.00,40.00,0,-999,0,0.00
2013-4-5,74,56,40,-100,-100,-100,0,0,100,0.00,40.00,0,-999,0,0.00
2013-4-6,71,61,54,-100,-100,-100,0,0,100,0.00,40.00,0,-999,0,0.00
2013-4-7,76,60,47,-100,-100,-100,0,0,100,0.00,40.00,0,-999,0,0.00
2013-4-8,75,62,51,-100,-100,-100,0,0,100,0.00,40.00,0,-999,0,0.00
2013-4-9,62,53,36,-100,-100,-100,0,0,100,0.00,40.00,0,-999,0,0.00
2013-4-10,37,36,34,-100,-100,-100,0,0,100,0.00,40.00,0,-999,0,0.00
2013-4-11,40,36,32,-100,-100,-100,0,0,100,0.00,40.00,0,-999,0,0.00
2013-4-12,54,42,32,-100,-100,-100,0,0,100,0.00,40.00,0,-999,0,0.00
2013-4-13,69,52,38,-100,-100,-100,0,0,100,0.00,40.00,0,-999,0,0.00
2013-4-14,69,60,48,-100,-100,-100,0,0,100,0.00,40.00,0,-999,0,0.00
2013-4-15,52,46,41,-100,-100,-100,0,0,100,0.00,40.00,0,-999,0,0.00
2013-4-16,47,44,39,-100,-100,-100,0,0,100,0.00,40.00,0,-999,0,0.00
2013-4-17,45,42,40,-100,-100,-100,0,0,100,0.00,40.00,0,-999,0,0.00
2013-4-18,41,37,33,-100,-100,-100,0,0,100,0.00,40.00,0,-999,0,0.00
2013-4-19,55,41,32,-100,-100,-100,0,0,100,0.00,40.00,0,-999,0,0.00
2013-4-20,55,43,32,-100,-100,-100,0,0,100,0.00,40.00,0,-999,0,0.00
2013-4-21,70,57,46,-100,-100,-100,0,0,100,0.00,40.00,0,-999,0,0.00
2013-4-22,56,49,36,-100,-100,-100,0,0,100,0.00,40.00,0,-999,0,0.00
2013-4-23,43,36,31,-100,-100,-100,0,0,100,0.00,40.00,0,-999,0,0.00
2013-4-24,62,44,29,-100,-100,-100,0,0,100,0.00,40.00,0,-999,0,0.00
2013-4-25,72,53,36,-100,-100,-100,0,0,100,0.00,40.00,0,-999,0,0.00
2013-4-26,64,56,51,-100,-100,-100,0,0,100,0.00,40.00,0,-999,0,0.00
2013-4-27,73,57,47,-100,-100,-100,0,0,100,0.00,40.00,0,-999,0,0.00
2013-4-28,80,63,47,-100,-100,-100,0,0,100,0.00,40.00,0,-999,0,0.00
2013-4-29,87,67,53,-100,-100,-100,0,0,100,0.00,40.00,0,-999,0,0.00
2013-4-30,88,75,65,-100,-100,-100,0,0,100,0.00,40.00,0,-999,0,0.00
2013-5-1,62,47,36,-100,-100,-100,0,0,100,0.00,40.00,0,-999,0,0.00
2013-5-2,48,40,33,-100,-100,-100,0,0,100,0.00,40.00,0,-999,0,0.00
2013-5-3,54,43,33,-100,-100,-100,0,0,100,0.00,40.00,0,-999,0,0.00
2013-5-4,44,42,38,-100,-100,-100,0,0,100,0.00,40.00,0,-999,0,0.00
2013-5-5,56,48,42,-100,-100,-100,0,0,100,0.00,40.00,0,-999,0,0.00
2013-5-6,70,57,47,-100,-100,-100,0,0,100,0.00,40.00,0,-999,0,0.00
2013-5-7,78,62,51,-100,-100,-100,0,0,100,0.00,40.00,0,-999,0,0.00
2013-5-8,79,65,55,-100,-100,-100,0,0,100,0.00,40.00,0,-999,0,0.00
2013-5-9,65,59,55,-100,-100,-100,0,0,100,0.00,40.00,0,-999,0,0.00
2013-5-10,70,59,51,-100,-100,-100,0,0,100,0.00,40.00,0,-999,0,0.00
2013-5-11,64,56,48,-100,-100,-100,0,0,100,0.00,40.00,0,-999,0,0.00
2013-5-12,74,57,39,-100,-100,-100,0,0,100,0.00,40.00,0,-999,0,0.00
2013-5-13,86,66,49,-100,-100,-100,0,0,100,0.00,40.00,0,-999,0,0.00
2013-5-14,94,71,59,-100,-100,-100,0,0,100,0.00,40.00,0,-999,0,0.00
2013-5-15,89,71,61,-100,-100,-100,0,0,100,0.00,40.00,0,-999,0,0.00
2013-5-16,85,69,62,-100,-100,-100,0,0,100,0.00,40.00,0,-999,0,0.00
2013-5-17,89,72,57,-100,-100,-100,0,0,100,0.00,40.00,0,-999,0,0.00
2013-5-18,82,72,61,-100,-100,-100,0,0,100,0.00,40.00,0,-999,0,0.00
2013-5-19,76,71,59,-100,-100,-100,0,0,100,0.00,40.00,0,-999,0,0.00
2013-5-20,79,66,54,-100,-100,-100,0,0,100,0.00,40.00,0,-999,0,0.00
2013-5-21,69,61,54,-100,-100,-100,0,0,100,0.00,40.00,0,-999,0,0.00
2013-5-22,69,59,50,-100,-100,-100,0,0,100,0.00,40.00,0,-999,0,0.00
2013-5-23,69,59,51,-100,-100,-100,0,0,100,0.00,40.00,0,-999,0,0.00
2013-5-24,74,63,51,-100,-100,-100,0,0,100,0.00,40.00,0,-999,0,0.00
2013-5-25,85,72,60,-100,-100,-100,0,0,100,0.00,40.00,0,-999,0,0.00
2013-5-26,86,74,66,-100,-100,-100,0,0,100,0.00,40.00,0,-999,0,0.00
2013-5-27,82,70,59,-100,-100,-100,0,0,100,0.00,40.00,0,-999,0,0.00
2013-5-28,81,71,63,-100,-100,-100,0,0,100,0.00,40.00,0,-999,0,0.00
2013-5-29,79,69,62,-100,-100,-100,0,0,100,0.00,40.00,0,-999,0,0.00
2013-5-30,80,65,58,-100,-100,-100,0,0,100,0.00,40.00,0,-999,0,0.00
2013-5-31,82,70,57,-100,-100,-100,0,0,100,0.00,40.00,0,-999,0,0.00
2013-6-1,72,62,56,-100,-100,-100,0,0,100,0.00,40.00,0,-999,0,0.00
2013-6-2,76,62,51,-100,-100,-100,0,0,100,0.00,40.00,0,-999,0,0.00
2013-6-3,78,63,50,-100,-100,-100,0,0,100,0.00,40.00,0,-999,0,0.00
2013-6-4,85,65,60,-100,-100,-100,0,0,100,0.00,40.00,0,-999,0,0.00
2013-6-5,76,66,54,-100,-100,-100,0,0,100,0.00,40.00,0,-999,0,0.00
2013-6-6,79,65,51,-100,-100,-100,0,0,100,0.00,40.00,0,-999,0,0.00
2013-6-7,84,64,50,-100,-100,-100,0,0,100,0.00,40.00,0,-999,0,0.00
2013-6-8,81,67,57,-100,-100,-100,0,0,100,0.00,40.00,0,-999,0,0.00
2013-6-9,81,68,55,-100,-100,-100,0,0,100,0.00,40.00,0,-999,0,0.00
2013-6-10,87,71,52,-100,-100,-100,0,0,100,0.00,40.00,0,-999,0,0.00
2013-6-11,95,80,70,-100,-100,-100,0,0,100,0.00,40.00,0,-999,0,0.00
2013-6-12,95,82,68,-100,-100,-100,0,0,100,0.00,40.00,0,-999,0,0.00
2013-6-13,81,70,58,-100,-100,-100,0,0,100,0.00,40.00,0,-999,0,0.00
2013-6-14,96,76,64,-100,-100,-100,0,0,100,0.00,40.00,0,-999,0,0.00
2013-6-15,80,75,69,-100,-100,-100,0,0,100,0.00,40.00,0,-999,0,0.00
2013-6-16,87,74,66,-100,-100,-100,0,0,100,0.00,40.00,0,-999,0,0.00
2013-6-17,91,77,67,-100,-100,-100,0,0,100,0.00,40.00,0,-999,0,0.00
2013-6-18,81,73,62,-100,-100,-100,0,0,100,0.00,40.00,0,-999,0,0.00
2013-6-19,88,75,62,-100,-100,-100,0,0,100,0.00,40.00,0,-999,0,0.00
2013-6-20,89,75,67,-100,-100,-100,0,0,100,0.00,40.00,0,-999,0,0.00
2013-6-22,91,85,76,-100,-100,-100,0,0,100,0.00,40.00,0,-999,0,0.00
2013-6-23,88,75,61,-100,-100,-100,0,0,100,0.00,40.00,0,-999,0,0.00
2013-6-24,83,75,68,-100,-100,-100,0,0,100,0.00,40.00,0,-999,0,0.00
2013-6-25,91,80,68,-100,-100,-100,0,0,100,0.00,40.00,0,-999,0,0.00
2013-6-26,97,82,68,-100,-100,-100,0,0,100,0.00,40.00,0,-999,0,0.00
2013-6-27,81,74,69,-100,-100,-100,0,0,100,0.00,40.00,0,-999,0,0.00
2013-6-28,86,74,64,-100,-100,-100,0,0,100,0.00,40.00,0,-999,0,0.00
2013-6-29,82,73,62,-100,-100,-100,0,0,100,0.00,40.00,0,-999,0,0.00
2013-6-30,77,69,58,-100,-100,-100,0,0,100,0.00,40.00,0,-999,0,0.00
2013-7-1,82,69,55,-100,-100,-100,0,0,100,0.00,40.00,0,-999,0,0.00
2013-7-2,85,69,58,-100,-100,-100,0,0,100,0.00,40.00,0,-999,0,0.00
2013-7-3,87,71,57,-100,-100,-100,0,0,100,0.00,40.00,0,-999,0,0.00
2013-7-4,87,74,59,-100,-100,-100,0,0,100,0.00,40.00,0,-999,0,0.00
2013-7-5,87,75,64,-100,-100,-100,0,0,100,0.00,40.00,0,-999,0,0.00
2013-7-6,87,75,69,-100,-100,-100,0,0,100,0.00,40.00,0,-999,0,0.00
2013-7-7,98,82,71,-100,-100,-100,0,0,100,0.00,40.00,0,-999,0,0.00
2013-7-8,98,80,73,-100,-100,-100,0,0,100,0.00,40.00,0,-999,0,0.00
2013-7-9,103,86,73,-100,-100,-100,0,0,100,0.00,40.00,0,-999,0,0.00
2013-7-10,90,80,72,-100,-100,-100,0,0,100,0.00,40.00,0,-999,0,0.00
2013-7-11,91,74,65,-100,-100,-100,0,0,100,0.00,40.00,0,-999,0,0.00
2013-7-12,94,79,69,-100,-100,-100,0,0,100,0.00,40.00,0,-999,0,0.00
2013-7-13,94,82,72,-100,-100,-100,0,0,100,0.00,40.00,0,-999,0,0.00
2013-7-14,91,78,69,-100,-100,-100,0,0,100,0.00,40.00,0,-999,0,0.00
2013-7-15,91,77,62,-100,-100,-100,0,0,100,0.00,40.00,0,-999,0,0.00
2013-7-16,94,80,64,-100,-100,-100,0,0,100,0.00,40.00,0,-999,0,0.00
2013-7-17,95,81,68,-100,-100,-100,0,0,100,0.00,40.00,0,-999,0,0.00
2013-7-18,97,85,69,-100,-100,-100,0,0,100,0.00,40.00,0,-999,0,0.00
2013-7-19,100,82,69,-100,-100,-100,0,0,100,0.00,40.00,0,-999,0,0.00
2013-7-20,80,73,68,-100,-100,-100,0,0,100,0.00,40.00,0,-999,0,0.00
2013-7-21,94,77,65,-100,-100,-100,0,0,100,0.00,40.00,0,-999,0,0.00
2013-7-22,94,79,68,-100,-100,-100,0,0,100,0.00,40.00,0,-999,0,0.00
2013-7-23,80,72,67,-100,-100,-100,0,0,100,0.00,40.00,0,-999,0,0.00
2013-7-24,87,73,60,-100,-100,-100,0,0,100,0.00,40.00,0,-999,0,0.00
2013-7-25,76,70,67,-100,-100,-100,0,0,100,0.00,40.00,0,-999,0,0.00
2013-7-26,82,73,65,-100,-100,-100,0,0,100,0.00,40.00,0,-999,0,0.00
2013-7-27,78,65,56,-100,-100,-100,0,0,100,0.00,40.00,0,-999,0,0.00
2013-7-28,80,63,54,-100,-100,-100,0,0,100,0.00,40.00,0,-999,0,0.00
2013-7-29,67,62,60,-100,-100,-100,0,0,100,0.00,40.00,0,-999,0,0.00
2013-7-30,81,70,64,-100,-100,-100,0,0,100,0.00,40.00,0,-999,0,0.00
2013-7-31,88,74,63,-100,-100,-100,0,0,100,0.00,40.00,0,-999,0,0.00
2013-8-1,91,76,63,-100,-100,-100,0,0,100,0.00,40.00,0,-999,0,0.00
2013-8-2,82,74,65,-100,-100,-100,0,0,100,0.00,40.00,0,-999,0,0.00
2013-8-3,80,72,63,-100,-100,-100,0,0,100,0.00,40.00,0,-999,0,0.00
2013-8-4,81,71,62,-100,-100,-100,0,0,100,0.00,40.00,0,-999,0,0.00
2013-8-5,87,74,69,-100,-100,-100,0,0,100,0.00,40.00,0,-999,0,0.00
2013-8-6,92,79,69,-100,-100,-100,0,0,100,0.00,40.00,0,-999,0,0.00
2013-8-7,87,76,69,-100,-100,-100,0,0,100,0.00,40.00,0,-999,0,0.00
2013-8-8,76,68,64,-100,-100,-100,0,0,100,0.00,40.00,0,-999,0,0.00
2013-8-9,84,73,62,-100,-100,-100,0,0,100,0.00,40.00,0,-999,0,0.00
2013-8-10,86,70,60,-100,-100,-100,0,0,100,0.00,40.00,0,-999,0,0.00
2013-8-11,89,74,62,-100,-100,-100,0,0,100,0.00,40.00,0,-999,0,0.00
2013-8-12,86,74,64,-100,-100,-100,0,0,100,0.00,40.00,0,-999,0,0.00
2013-8-13,78,70,64,-100,-100,-100,0,0,100,0.00,40.00,0,-999,0,0.00
2013-8-14,83,67,58,-100,-100,-100,0,0,100,0.00,40.00,0,-999,0,0.00
2013-8-15,76,66,62,-100,-100,-100,0,0,100,0.00,40.00,0,-999,0,0.00
2013-8-16,76,67,59,-100,-100,-100,0,0,100,0.00,40.00,0,-999,0,0.00
2013-8-17,83,70,59,-100,-100,-100,0,0,100,0.00,40.00,0,-999,0,0.00
2013-8-18,86,70,56,-100,-100,-100,0,0,100,0.00,40.00,0,-999,0,0.00
2013-8-19,89,75,64,-100,-100,-100,0,0,100,0.00,40.00,0,-999,0,0.00
2013-8-20,93,77,66,-100,-100,-100,0,0,100,0.00,40.00,0,-999,0,0.00
2013-8-21,94,79,67,-100,-100,-100,0,0,100,0.00,40.00,0,-999,0,0.00
2013-8-22,91,77,68,-100,-100,-100,0,0,100,0.00,40.00,0,-999,0,0.00
2013-8-23,89,78,68,-100,-100,-100,0,0,100,0.00,40.00,0,-999,0,0.00
2013-8-24,92,80,70,-100,-100,-100,0,0,100,0.00,40.00,0,-999,0,0.00
2013-8-25,97,83,70,-100,-100,-100,0,0,100,0.00,40.00,0,-999,0,0.00
2013-8-26,96,81,70,-100,-100,-100,0,0,100,0.00,40.00,0,-999,0,0.00
2013-8-27,89,77,69,-100,-100,-100,0,0,100,0.00,40.00,0,-999,0,0.00
2013-8-28,97,89,76,-100,-100,-100,0,0,100,0.00,40.00,0,-999,0,0.00
2013-8-29,99,83,71,-100,-100,-100,0,0,100,0.00,40.00,0,-999,0,0.00
2013-8-30,102,84,70,-100,-100,-100,0,0,100,0.00,40.00,0,-999,0,0.00
2013-8-31,100,81,72,-100,-100,-100,0,0,100,0.00,40.00,0,-999,0,0.00
2013-9-1,84,75,66,-100,-100,-100,0,0,100,0.00,40.00,0,-999,0,0.00
2013-9-2,82,70,58,-100,-100,-100,0,0,100,0.00,40.00,0,-999,0,0.00
2013-9-3,91,73,56,-100,-100,-100,0,0,100,0.00,40.00,0,-999,0,0.00
2013-9-4,88,73,60,-100,-100,-100,0,0,100,0.00,40.00,0,-999,0,0.00
2013-9-5,88,75,63,-100,-100,-100,0,0,100,0.00,40.00,0,-999,0,0.00
2013-9-6,98,79,65,-100,-100,-100,0,0,100,0.00,40.00,0,-999,0,0.00
2013-9-7,104,82,69,-100,-100,-100,0,0,100,0.00,40.00,0,-999,0,0.00
2013-9-8,103,83,71,-100,-100,-100,0,0,100,0.00,40.00,0,-999,0,0.00
2013-9-9,94,82,70,-100,-100,-100,0,0,100,0.00,40.00,0,-999,0,0.00
2013-9-10,95,81,69,-100,-100,-100,0,0,100,0.00,40.00,0,-999,0,0.00
2013-9-11,92,77,68,-100,-100,-100,0,0,100,0.00,40.00,0,-999,0,0.00
2013-9-12,82,71,66,-100,-100,-100,0,0,100,0.00,40.00,0,-999,0,0.00
2013-9-13,79,65,54,-100,-100,-100,0,0,100,0.00,40.00,0,-999,0,0.00
2013-9-14,83,67,56,-100,-100,-100,0,0,100,0.00,40.00,0,-999,0,0.00
2013-9-15,69,66,60,-100,-100,-100,0,0,100,0.00,40.00,0,-999,0,0.00
2013-9-16,60,58,56,-100,-100,-100,0,0,100,0.00,40.00,0,-999,0,0.00
2013-9-17,80,65,57,-100,-100,-100,0,0,100,0.00,40.00,0,-999,0,0.00
2013-9-18,77,68,66,-100,-100,-100,0,0,100,0.00,40.00,0,-999,0,0.00
2013-9-19,87,73,62,-100,-100,-100,0,0,100,0.00,40.00,0,-999,0,0.00
2013-9-20,75,63,51,-100,-100,-100,0,0,100,0.00,40.00,0,-999,0,0.00
2013-9-21,87,63,47,-100,-100,-100,0,0,100,0.00,40.00,0,-999,0,0.00
2013-9-22,82,67,54,-100,-100,-100,0,0,100,0.00,40.00,0,-999,0,0.00
2013-9-23,77,65,54,-100,-100,-100,0,0,100,0.00,40.00,0,-999,0,0.00
2013-9-24,71,65,58,-100,-100,-100,0,0,100,0.00,40.00,0,-999,0,0.00
2013-9-25,82,64,49,-100,-100,-100,0,0,100,0.00,40.00,0,-999,0,0.00
2013-9-26,87,72,61,-100,-100,-100,0,0,100,0.00,40.00,0,-999,0,0.00
2013-9-27,87,75,67,-100,-100,-100,0,0,100,0.00,40.00,0,-999,0,0.00
2013-9-28,76,63,51,-100,-100,-100,0,0,100,0.00,40.00,0,-999,0,0.00
2013-9-29,78,60,45,-100,-100,-100,0,0,100,0.00,40.00,0,-999,0,0.00
2013-9-30,83,63,51,-100,-100,-100,0,0,100,0.00,40.00,0,-999,0,0.00
2013-10-1,87,75,69,-100,-100,-100,0,0,100,0.00,40.00,0,-999,0,0.00
2013-10-2,83,72,62,-100,-100,-100,0,0,100,0.00,40.00,0,-999,0,0.00
2013-10-3,81,69,58,-100,-100,-100,0,0,100,0.00,40.00,0,-999,0,0.00
2013-10-4,86,73,54,-100,-100,-100,0,0,100,0.00,40.00,0,-999,0,0.00
2013-10-5,56,50,45,-100,-100,-100,0,0,100,0.00,40.00,0,-999,0,0.00
2013-10-6,62,50,45,-100,-100,-100,0,0,100,0.00,40.00,0,-999,0,0.00
2013-10-7,76,56,44,-100,-100,-100,0,0,100,0.00,40.00,0,-999,0,0.00
2013-10-8,78,61,48,-100,-100,-100,0,0,100,0.00,40.00,0,-999,0,0.00
2013-10-9,80,63,53,-100,-100,-100,0,0,100,0.00,40.00,0,-999,0,0.00
2013-10-10,80,67,55,-100,-100,-100,0,0,100,0.00,40.00,0,-999,0,0.00
2013-10-11,80,68,57,-100,-100,-100,0,0,100,0.00,40.00,0,-999,0,0.00
2013-10-12,70,56,43,-100,-100,-100,0,0,100,0.00,40.00,0,-999,0,0.00
2013-10-13,72,56,43,-100,-100,-100,0,0,100,0.00,40.00,0,-999,0,0.00
2013-10-14,59,56,52,-100,-100,-100,0,0,100,0.00,40.00,0,-999,0,0.00
2013-10-15,55,49,43,-100,-100,-100,0,0,100,0.00,40.00,0,-999,0,0.00
2013-10-16,60,48,40,-100,-100,-100,0,0,100,0.00,40.00,0,-999,0,0.00
2013-10-17,62,49,39,-100,-100,-100,0,0,100,0.00,40.00,0,-999,0,0.00
2013-10-18,50,42,36,-100,-100,-100,0,0,100,0.00,40.00,0,-999,0,0.00
2013-10-19,65,46,32,-100,-100,-100,0,0,100,0.00,40.00,0,-999,0,0.00
2013-10-20,65,52,41,-100,-100,-100,0,0,100,0.00,40.00,0,-999,0,0.00
2013-10-21,60,45,32,-100,-100,-100,0,0,100,0.00,40.00,0,-999,0,0.00
2013-10-22,60,49,39,-100,-100,-100,0,0,100,0.00,40.00,0,-999,0,0.00
2013-10-23,63,45,35,-100,-100,-100,0,0,100,0.00,40.00,0,-999,0,0.00
2013-10-24,52,42,35,-100,-100,-100,0,0,100,0.00,40.00,0,-999,0,0.00
2013-10-25,62,43,30,-100,-100,-100,0,0,100,0.00,40.00,0,-999,0,0.00
2013-10-26,59,46,35,-100,-100,-100,0,0,100,0.00,40.00,0,-999,0,0.00
2013-10-27,71,48,31,-100,-100,-100,0,0,100,0.00,40.00,0,-999,0,0.00
2013-10-28,67,51,41,-100,-100,-100,0,0,100,0.00,40.00,0,-999,0,0.00
2013-10-29,58,55,51,-100,-100,-100,0,0,100,0.00,40.00,0,-999,0,0.00
2013-10-30,57,51,47,-100,-100,-100,0,0,100,0.00,40.00,0,-999,0,0.00
2013-10-31,59,49,43,-100,-100,-100,0,0,100,0.00,40.00,0,-999,0,0.00
2013-11-1,59,48,40,-100,-100,-100,0,0,100,0.00,40.00,0,-999,0,0.00
2013-11-2,60,46,36,-100,-100,-100,0,0,100,0.00,40.00,0,-999,0,0.00
2013-11-3,59,50,40,-100,-100,-100,0,0,100,0.00,40.00,0,-999,0,0.00
2013-11-4,59,52,44,-100,-100,-100,0,0,100,0.00,40.00,0,-999,0,0.00
2013-11-5,56,48,39,-100,-100,-100,0,0,100,0.00,40.00,0,-999,0,0.00
2013-11-6,46,39,33,-100,-100,-100,0,0,100,0.00,40.00,0,-999,0,0.00
2013-11-7,55,40,31,-100,-100,-100,0,0,100,0.00,40.00,0,-999,0,0.00
2013-11-8,65,51,38,-100,-100,-100,0,0,100,0.00,40.00,0,-999,0,0.00
2013-11-9,65,49,37,-100,-100,-100,0,0,100,0.00,40.00,0,-999,0,0.00
2013-11-10,58,47,34,-100,-100,-100,0,0,100,0.00,40.00,0,-999,0,0.00
2013-11-11,47,40,29,-100,-100,-100,0,0,100,0.00,40.00,0,-999,0,0.00
2013-11-12,39,25,20,-100,-100,-100,0,0,100,0.00,40.00,0,-999,0,0.00
2013-11-13,57,40,28,-100,-100,-100,0,0,100,0.00,40.00,0,-999,0,0.00
2013-11-14,59,47,40,-100,-100,-100,0,0,100,0.00,40.00,0,-999,0,0.00
2013-11-15,61,54,43,-100,-100,-100,0,0,100,0.00,40.00,0,-999,0,0.00
2013-11-16,68,57,51,-100,-100,-100,0,0,100,0.00,40.00,0,-999,0,0.00
2013-11-17,59,51,43,-100,-100,-100,0,0,100,0.00,40.00,0,-999,0,0.00
2013-11-18,60,48,34,-100,-100,-100,0,0,100,0.00,40.00,0,-999,0,0.00
2013-11-19,64,56,43,-100,-100,-100,0,0,100,0.00,40.00,0,-999,0,0.00
2013-11-20,66,54,47,-100,-100,-100,0,0,100,0.00,40.00,0,-999,0,0.00
2013-11-21,47,31,25,-100,-100,-100,0,0,100,0.00,40.00,0,-999,0,0.00
2013-11-22,32,26,21,-100,-100,-100,0,0,100,0.00,40.00,0,-999,0,0.00
2013-11-26,39,32,25,-100,-100,-100,0,0,100,0.00,40.00,0,-999,0,0.00
2013-11-27,35,30,18,-100,-100,-100,0,0,100,0.00,40.00,0,-999,0,0.00
2013-11-28,38,32,28,-100,-100,-100,0,0,100,0.00,40.00,0,-999,0,0.00
2013-11-29,57,44,27,-100,-100,-100,0,0,100,0.00,40.00,0,-999,0,0.00
2013-11-30,62,50,40,-100,-100,-100,0,0,100,0.00,40.00,0,-999,0,0.00
2013-12-1,56,43,32,-100,-100,-100,0,0,100,0.00,40.00,0,-999,0,0.00
2013-12-2,63,49,36,-100,-100,-100,0,0,100,0.00,40.00,0,-999,0,0.00
2013-12-3,54,45,38,-100,-100,-100,0,0,100,0.00,40.00,0,-999,0,0.00
2013-12-4,39,33,28,-100,-100,-100,0,0,100,0.00,40.00,0,-999,0,0.00
2013-12-5,21,20,18,-100,-100,-100,0,0,100,0.00,40.00,0,-999,0,0.00
2013-12-6,16,14,10,-100,-100,-100,0,0,100,0.00,40.00,0,-999,0,0.00
2013-12-7,20,18,9,-100,-100,-100,0,0,100,0.00,40.00,0,-999,0,0.00
2013-12-8,20,19,19,-100,-100,-100,0,0,100,0.00,40.00,0,-999,0,0.00
2013-12-9,12,12,12,-100,-100,-100,0,0,100,0.00,40.00,0,-999,0,0.00
2013-12-10,18,17,16,-100,-100,-100,0,0,100,0.00,40.00,0,-999,0,0.00
2013-12-11,28,23,18,-100,-100,-100,0,0,100,0.00,40.00,0,-999,0,0.00
2013-12-12,32,23,18,-100,-100,-100,0,0,100,0.00,40.00,0,-999,0,0.00
2013-12-13,40,35,29,-100,-100,-100,0,0,100,0.00,40.00,0,-999,0,0.00
2013-12-14,27,25,22,-100,-100,-100,0,0,100,0.00,40.00,0,-999,0,0.00
2013-12-15,49,42,26,-100,-100,-100,0,0,100,0.00,40.00,0,-999,0,0.00
2013-12-16,58,45,36,-100,-100,-100,0,0,100,0.00,40.00,0,-999,0,0.00
2013-12-17,47,38,29,-100,-100,-100,0,0,100,0.00,40.00,0,-999,0,0.00
2013-12-18,63,48,37,-100,-100,-100,0,0,100,0.00,40.00,0,-999,0,0.00
2013-12-19,46,39,32,-100,-100,-100,0,0,100,0.00,40.00,0,-999,0,0.00
2013-12-20,22,22,21,-100,-100,-100,0,0,100,0.00,40.00,0,-999,0,0.00
2013-12-21,29,27,25,-100,-100,-100,0,0,100,0.00,40.00,0,-999,0,0.00
2013-12-22,26,24,20,-100,-100,-100,0,0,100,0.00,40.00,0,-999,0,0.00
2013-12-23,15,15,15,-100,-100,-100,0,0,100,0.00,40.00,0,-999,0,0.00
2013-12-24,29,29,29,-100,-100,-100,0,0,100,0.00,40.00,0,-999,0,0.00
2013-12-25,47,33,21,-100,-100,-100,0,0,100,0.00,40.00,0,-999,0,0.00
2013-12-26,50,36,27,-100,-100,-100,0,0,100,0.00,40.00,0,-999,0,0.00
2013-12-27,53,46,40,-100,-100,-100,0,0,100,0.00,40.00,0,-999,0,0.00
2013-12-28,52,42,36,-100,-100,-100,0,0,100,0.00,40.00,0,-999,0,0.00
2013-12-29,29,20,15,-100,-100,-100,0,0,100,0.00,40.00,0,-999,0,0.00
2013-12-30,42,34,29,-100,-100,-100,0,0,100,0.00,40.00,0,-999,0,0.00
2013-12-31,50,38,24,-100,-100,-100,0,0,100,0.00,40.00,0,-999,0,0.00